createdAt,value
2023-03-29T00:00:29.036Z,5.71
2023-03-29T00:01:34.906Z,5.68
2023-03-29T00:02:30.473Z,5.44
2023-03-29T00:03:29.123Z,5.51
2023-03-29T00:04:29.012Z,5.47
2023-03-29T00:05:28.976Z,5.54
2023-03-29T00:06:28.950Z,5.62
2023-03-29T00:07:28.947Z,5.50
2023-03-29T00:08:28.943Z,5.46
2023-03-29T00:09:28.918Z,5.44
2023-03-29T00:10:28.920Z,5.43
2023-03-29T00:11:28.905Z,5.47
2023-03-29T00:12:28.883Z,5.64
2023-03-29T00:13:28.900Z,5.64
2023-03-29T00:14:28.843Z,5.44
2023-03-29T00:15:31.853Z,5.44
2023-03-29T00:16:31.825Z,5.39
2023-03-29T00:17:28.806Z,5.43
2023-03-29T00:18:28.848Z,5.57
2023-03-29T00:19:28.796Z,5.41
2023-03-29T00:20:29.034Z,5.43
2023-03-29T00:21:28.770Z,5.38
2023-03-29T00:22:28.734Z,5.33
2023-03-29T00:23:28.742Z,5.56
2023-03-29T00:24:28.796Z,5.53
2023-03-29T00:25:28.709Z,5.35
2023-03-29T00:26:28.678Z,5.44
2023-03-29T00:27:28.676Z,5.51
2023-03-29T00:28:28.678Z,5.36
2023-03-29T00:29:28.658Z,5.46
2023-03-29T00:30:28.678Z,5.33
2023-03-29T00:31:28.678Z,5.39
2023-03-29T00:32:28.625Z,5.28
2023-03-29T00:33:28.597Z,5.29
2023-03-29T00:34:28.583Z,5.39
2023-03-29T00:35:31.639Z,5.28
2023-03-29T00:36:31.552Z,5.25
2023-03-29T00:37:28.527Z,5.43
2023-03-29T00:38:28.522Z,5.35
2023-03-29T00:39:28.504Z,5.29
2023-03-29T00:40:28.505Z,5.43
2023-03-29T00:41:28.517Z,5.43
2023-03-29T00:42:28.467Z,5.41
2023-03-29T00:43:28.449Z,5.36
2023-03-29T00:44:28.441Z,5.15
2023-03-29T00:45:28.424Z,5.14
2023-03-29T00:46:28.443Z,5.12
2023-03-29T00:47:28.487Z,5.11
2023-03-29T00:48:28.406Z,5.23
2023-03-29T00:49:28.379Z,5.25
2023-03-29T00:50:28.348Z,5.08
2023-03-29T00:51:28.359Z,5.21
2023-03-29T00:52:28.319Z,5.10
2023-03-29T00:53:28.416Z,5.23
2023-03-29T00:54:28.294Z,5.20
2023-03-29T00:55:31.293Z,5.17
2023-03-29T00:56:31.293Z,5.00
2023-03-29T00:57:28.309Z,5.04
2023-03-29T00:58:28.249Z,5.17
2023-03-29T00:59:28.292Z,4.99
2023-03-29T01:00:28.210Z,4.99
2023-03-29T01:01:28.302Z,4.96
2023-03-29T01:02:28.250Z,4.97
2023-03-29T01:03:28.235Z,4.99
2023-03-29T01:04:28.156Z,4.97
2023-03-29T01:05:28.222Z,4.94
2023-03-29T01:06:28.156Z,4.92
2023-03-29T01:07:28.119Z,4.92
2023-03-29T01:08:28.120Z,4.87
2023-03-29T01:09:28.095Z,4.87
2023-03-29T01:10:28.084Z,5.04
2023-03-29T01:11:28.112Z,5.04
2023-03-29T01:12:28.072Z,4.87
2023-03-29T01:13:28.046Z,4.97
2023-03-29T01:14:28.021Z,4.90
2023-03-29T01:15:31.003Z,4.86
2023-03-29T01:16:31.131Z,4.71
2023-03-29T01:17:27.987Z,4.66
2023-03-29T01:18:27.969Z,4.80
2023-03-29T01:19:27.959Z,4.77
2023-03-29T01:20:27.939Z,4.73
2023-03-29T01:21:27.926Z,4.70
2023-03-29T01:22:27.944Z,4.56
2023-03-29T01:23:27.924Z,4.53
2023-03-29T01:24:27.879Z,4.40
2023-03-29T01:25:27.875Z,4.37
2023-03-29T01:26:27.896Z,4.38
2023-03-29T01:27:27.842Z,4.37
2023-03-29T01:28:27.836Z,4.40
2023-03-29T01:29:27.833Z,4.38
2023-03-29T01:30:27.814Z,4.26
2023-03-29T01:31:27.806Z,4.24
2023-03-29T01:32:27.909Z,4.35
2023-03-29T01:33:27.782Z,4.22
2023-03-29T01:34:27.744Z,4.26
2023-03-29T01:35:30.785Z,4.34
2023-03-29T01:36:30.753Z,4.19
2023-03-29T01:37:27.770Z,4.34
2023-03-29T01:38:27.706Z,4.22
2023-03-29T01:39:27.707Z,4.13
2023-03-29T01:40:27.672Z,4.14
2023-03-29T01:41:27.653Z,4.23
2023-03-29T01:42:27.642Z,4.19
2023-03-29T01:43:27.654Z,4.10
2023-03-29T01:44:27.612Z,4.02
2023-03-29T01:45:27.617Z,3.99
2023-03-29T01:46:27.617Z,3.99
2023-03-29T01:47:27.586Z,3.92
2023-03-29T01:48:27.656Z,3.87
2023-03-29T01:49:27.567Z,3.98
2023-03-29T01:50:27.534Z,3.86
2023-03-29T01:51:27.506Z,3.84
2023-03-29T01:52:27.503Z,3.88
2023-03-29T01:53:27.490Z,3.86
2023-03-29T01:54:27.536Z,3.99
2023-03-29T01:55:30.457Z,3.78
2023-03-29T01:56:30.465Z,3.77
2023-03-29T01:57:27.471Z,3.74
2023-03-29T01:58:27.427Z,3.74
2023-03-29T01:59:27.430Z,3.86
2023-03-29T02:00:27.480Z,3.62
2023-03-29T02:01:27.437Z,3.84
2023-03-29T02:02:27.607Z,3.80
2023-03-29T02:03:27.467Z,3.78
2023-03-29T02:04:27.348Z,3.76
2023-03-29T02:05:27.339Z,3.76
2023-03-29T02:06:27.395Z,3.73
2023-03-29T02:07:27.314Z,3.70
2023-03-29T02:08:27.295Z,3.48
2023-03-29T02:09:27.297Z,3.69
2023-03-29T02:10:27.281Z,3.63
2023-03-29T02:11:27.258Z,3.45
2023-03-29T02:12:27.288Z,3.45
2023-03-29T02:13:27.248Z,3.42
2023-03-29T02:14:27.222Z,3.42
2023-03-29T02:15:30.325Z,3.40
2023-03-29T02:16:30.207Z,3.60
2023-03-29T02:17:27.228Z,3.40
2023-03-29T02:18:27.163Z,3.36
2023-03-29T02:19:27.150Z,3.31
2023-03-29T02:20:27.137Z,3.32
2023-03-29T02:21:27.171Z,3.41
2023-03-29T02:22:27.114Z,3.31
2023-03-29T02:23:27.101Z,3.44
2023-03-29T02:24:27.095Z,3.48
2023-03-29T02:25:27.072Z,3.41
2023-03-29T02:26:27.068Z,3.26
2023-03-29T02:27:27.097Z,3.48
2023-03-29T02:28:27.065Z,3.48
2023-03-29T02:29:27.026Z,3.50
2023-03-29T02:30:27.013Z,3.48
2023-03-29T02:31:27.071Z,3.48
2023-03-29T02:32:26.999Z,3.48
2023-03-29T02:33:27.093Z,3.44
2023-03-29T02:34:26.963Z,3.21
2023-03-29T02:35:29.961Z,3.32
2023-03-29T02:36:29.934Z,3.44
2023-03-29T02:37:26.922Z,3.44
2023-03-29T02:38:26.912Z,3.23
2023-03-29T02:39:26.918Z,3.19
2023-03-29T02:40:26.886Z,3.44
2023-03-29T02:41:26.888Z,3.44
2023-03-29T02:42:26.858Z,3.45
2023-03-29T02:43:26.834Z,3.45
2023-03-29T02:44:26.885Z,3.45
2023-03-29T02:45:26.814Z,3.44
2023-03-29T02:46:26.872Z,3.28
2023-03-29T02:47:26.784Z,3.23
2023-03-29T02:48:26.780Z,3.47
2023-03-29T02:49:26.771Z,3.40
2023-03-29T02:50:26.811Z,3.21
2023-03-29T02:51:26.746Z,3.53
2023-03-29T02:52:26.728Z,3.51
2023-03-29T02:53:26.739Z,3.53
2023-03-29T02:54:26.698Z,3.53
2023-03-29T02:55:29.727Z,3.56
2023-03-29T02:56:29.714Z,3.55
2023-03-29T02:57:26.930Z,3.34
2023-03-29T02:58:26.704Z,3.40
2023-03-29T02:59:26.630Z,3.50
2023-03-29T03:00:26.622Z,3.40
2023-03-29T03:01:26.727Z,3.60
2023-03-29T03:02:26.625Z,3.62
2023-03-29T03:03:26.743Z,3.62
2023-03-29T03:04:26.564Z,3.63
2023-03-29T03:05:26.557Z,3.66
2023-03-29T03:06:26.543Z,3.66
2023-03-29T03:07:26.587Z,3.66
2023-03-29T03:08:26.501Z,3.63
2023-03-29T03:09:26.503Z,3.48
2023-03-29T03:10:26.493Z,3.70
2023-03-29T03:11:26.479Z,3.70
2023-03-29T03:12:26.482Z,3.70
2023-03-29T03:13:26.501Z,3.74
2023-03-29T03:14:26.436Z,3.73
2023-03-29T03:15:29.423Z,3.76
2023-03-29T03:16:29.502Z,3.73
2023-03-29T03:17:26.402Z,3.70
2023-03-29T03:18:26.372Z,3.55
2023-03-29T03:19:26.389Z,3.66
2023-03-29T03:20:26.345Z,3.60
2023-03-29T03:21:26.330Z,3.77
2023-03-29T03:22:26.333Z,3.62
2023-03-29T03:23:26.381Z,3.60
2023-03-29T03:24:26.291Z,3.58
2023-03-29T03:25:26.270Z,3.81
2023-03-29T03:26:26.254Z,3.63
2023-03-29T03:27:26.245Z,3.62
2023-03-29T03:28:26.251Z,3.59
2023-03-29T03:29:26.290Z,3.78
2023-03-29T03:30:26.209Z,3.78
2023-03-29T03:31:26.228Z,3.78
2023-03-29T03:32:26.299Z,3.77
2023-03-29T03:33:26.198Z,3.78
2023-03-29T03:34:26.170Z,3.77
2023-03-29T03:35:29.236Z,3.76
2023-03-29T03:36:29.172Z,3.56
2023-03-29T03:37:26.126Z,3.69
2023-03-29T03:38:26.098Z,3.60
2023-03-29T03:39:26.092Z,3.55
2023-03-29T03:40:28.272Z,3.77
2023-03-29T03:41:26.148Z,3.80
2023-03-29T03:42:26.052Z,3.56
2023-03-29T03:43:26.051Z,3.65
2023-03-29T03:44:26.040Z,3.76
2023-03-29T03:45:26.132Z,3.59
2023-03-29T03:46:27.731Z,3.78
2023-03-29T03:47:26.041Z,3.59
2023-03-29T03:48:25.973Z,3.76
2023-03-29T03:49:25.964Z,3.78
2023-03-29T03:50:25.943Z,3.77
2023-03-29T03:51:25.996Z,3.59
2023-03-29T03:52:25.915Z,3.78
2023-03-29T03:53:25.939Z,3.80
2023-03-29T03:54:25.902Z,3.81
2023-03-29T03:55:28.881Z,3.78
2023-03-29T03:56:28.914Z,3.62
2023-03-29T03:57:25.950Z,3.83
2023-03-29T03:58:25.842Z,3.84
2023-03-29T03:59:25.824Z,3.84
2023-03-29T04:00:25.820Z,3.63
2023-03-29T04:01:25.785Z,3.68
2023-03-29T04:02:25.911Z,3.66
2023-03-29T04:03:25.829Z,3.84
2023-03-29T04:04:25.841Z,3.78
2023-03-29T04:05:25.743Z,3.66
2023-03-29T04:06:25.748Z,3.68
2023-03-29T04:07:25.713Z,3.88
2023-03-29T04:08:25.747Z,3.86
2023-03-29T04:09:25.711Z,3.69
2023-03-29T04:10:25.681Z,3.88
2023-03-29T04:11:25.678Z,3.92
2023-03-29T04:12:25.653Z,3.91
2023-03-29T04:13:25.654Z,3.86
2023-03-29T04:14:25.683Z,3.76
2023-03-29T04:15:28.638Z,3.74
2023-03-29T04:16:28.714Z,3.94
2023-03-29T04:17:25.674Z,3.95
2023-03-29T04:18:25.665Z,3.95
2023-03-29T04:19:25.552Z,3.78
2023-03-29T04:20:25.560Z,3.98
2023-03-29T04:21:25.526Z,3.98
2023-03-29T04:22:25.511Z,3.98
2023-03-29T04:23:25.499Z,3.99
2023-03-29T04:24:25.497Z,3.98
2023-03-29T04:25:25.532Z,4.01
2023-03-29T04:26:25.452Z,3.99
2023-03-29T04:27:25.456Z,3.99
2023-03-29T04:28:25.431Z,3.83
2023-03-29T04:29:25.421Z,3.98
2023-03-29T04:30:25.405Z,3.88
2023-03-29T04:31:25.526Z,3.84
2023-03-29T04:32:25.431Z,3.77
2023-03-29T04:33:25.374Z,3.91
2023-03-29T04:34:25.365Z,3.91
2023-03-29T04:35:28.341Z,3.86
2023-03-29T04:36:28.401Z,3.88
2023-03-29T04:37:25.324Z,3.91
2023-03-29T04:38:25.299Z,3.95
2023-03-29T04:39:25.288Z,3.92
2023-03-29T04:40:25.285Z,3.88
2023-03-29T04:41:25.289Z,3.94
2023-03-29T04:42:25.284Z,4.05
2023-03-29T04:43:25.241Z,3.96
2023-03-29T04:44:25.237Z,4.08
2023-03-29T04:45:25.276Z,4.10
2023-03-29T04:46:25.265Z,4.04
2023-03-29T04:47:25.212Z,4.02
2023-03-29T04:48:25.224Z,4.01
2023-03-29T04:49:26.174Z,4.23
2023-03-29T04:50:25.171Z,4.24
2023-03-29T04:51:25.137Z,4.26
2023-03-29T04:52:25.144Z,4.30
2023-03-29T04:53:25.111Z,4.31
2023-03-29T04:54:25.128Z,4.31
2023-03-29T04:55:28.092Z,4.31
2023-03-29T04:56:28.083Z,4.19
2023-03-29T04:57:25.107Z,4.17
2023-03-29T04:58:28.195Z,4.19
2023-03-29T04:59:26.064Z,4.22
2023-03-29T05:00:25.020Z,4.19
2023-03-29T05:01:25.101Z,4.42
2023-03-29T05:02:25.027Z,4.45
2023-03-29T05:03:25.017Z,4.45
2023-03-29T05:04:24.972Z,4.50
2023-03-29T05:05:24.967Z,4.50
2023-03-29T05:06:24.961Z,4.53
2023-03-29T05:07:24.937Z,4.56
2023-03-29T05:08:24.969Z,4.58
2023-03-29T05:09:24.913Z,4.56
2023-03-29T05:10:24.909Z,4.59
2023-03-29T05:11:24.885Z,4.62
2023-03-29T05:12:24.872Z,4.62
2023-03-29T05:13:24.875Z,4.66
2023-03-29T05:14:24.878Z,4.63
2023-03-29T05:15:27.831Z,4.45
2023-03-29T05:16:27.870Z,4.49
2023-03-29T05:17:24.801Z,4.49
2023-03-29T05:18:24.787Z,4.67
2023-03-29T05:19:24.895Z,4.59
2023-03-29T05:20:24.765Z,4.53
2023-03-29T05:21:24.746Z,4.62
2023-03-29T05:22:24.767Z,4.60
2023-03-29T05:23:24.769Z,4.56
2023-03-29T05:24:24.716Z,4.55
2023-03-29T05:25:24.720Z,4.68
2023-03-29T05:26:24.678Z,4.63
2023-03-29T05:27:24.674Z,4.59
2023-03-29T05:28:24.678Z,4.59
2023-03-29T05:29:24.726Z,4.80
2023-03-29T05:30:24.648Z,4.80
2023-03-29T05:31:24.687Z,4.84
2023-03-29T05:32:24.726Z,4.82
2023-03-29T05:33:24.612Z,4.80
2023-03-29T05:34:24.594Z,4.82
2023-03-29T05:35:27.635Z,4.82
2023-03-29T05:36:27.570Z,4.68
2023-03-29T05:37:24.567Z,4.90
2023-03-29T05:38:24.565Z,4.92
2023-03-29T05:39:24.514Z,4.93
2023-03-29T05:40:24.527Z,4.94
2023-03-29T05:41:24.504Z,4.96
2023-03-29T05:42:24.503Z,4.99
2023-03-29T05:43:24.462Z,4.99
2023-03-29T05:44:24.499Z,4.97
2023-03-29T05:45:24.555Z,5.00
2023-03-29T05:46:24.428Z,5.00
2023-03-29T05:47:24.492Z,5.04
2023-03-29T05:48:24.404Z,5.05
2023-03-29T05:49:24.420Z,5.07
2023-03-29T05:50:24.376Z,5.07
2023-03-29T05:51:24.566Z,5.07
2023-03-29T05:52:24.335Z,5.07
2023-03-29T05:53:24.335Z,4.96
2023-03-29T05:54:24.316Z,5.11
2023-03-29T05:55:27.390Z,4.93
2023-03-29T05:56:27.324Z,4.97
2023-03-29T05:57:24.389Z,5.17
2023-03-29T05:58:24.274Z,5.17
2023-03-29T05:59:24.303Z,5.21
2023-03-29T06:00:24.472Z,5.20
2023-03-29T06:01:24.297Z,5.25
2023-03-29T06:02:24.403Z,5.26
2023-03-29T06:03:24.357Z,5.26
2023-03-29T06:04:24.353Z,5.29
2023-03-29T06:05:24.229Z,5.29
2023-03-29T06:06:24.217Z,5.30
2023-03-29T06:07:24.157Z,5.33
2023-03-29T06:08:24.182Z,5.36
2023-03-29T06:09:24.139Z,5.38
2023-03-29T06:10:24.111Z,5.41
2023-03-29T06:11:24.105Z,5.41
2023-03-29T06:12:24.116Z,5.25
2023-03-29T06:13:24.086Z,5.47
2023-03-29T06:14:24.064Z,5.46
2023-03-29T06:15:27.088Z,5.47
2023-03-29T06:16:27.066Z,5.44
2023-03-29T06:17:24.098Z,5.32
2023-03-29T06:18:24.023Z,5.54
2023-03-29T06:19:24.033Z,5.57
2023-03-29T06:20:24.019Z,5.59
2023-03-29T06:21:24.021Z,5.62
2023-03-29T06:22:23.965Z,5.47
2023-03-29T06:23:23.978Z,5.65
2023-03-29T06:24:23.925Z,5.65
2023-03-29T06:25:23.907Z,5.66
2023-03-29T06:26:23.908Z,5.61
2023-03-29T06:27:23.922Z,5.53
2023-03-29T06:28:23.891Z,5.64
2023-03-29T06:29:23.906Z,5.54
2023-03-29T06:30:23.858Z,5.69
2023-03-29T06:31:23.898Z,5.66
2023-03-29T06:32:23.862Z,5.75
2023-03-29T06:33:23.839Z,5.71
2023-03-29T06:34:23.874Z,5.66
2023-03-29T06:35:26.810Z,5.86
2023-03-29T06:36:26.793Z,5.87
2023-03-29T06:37:23.769Z,5.73
2023-03-29T06:38:23.763Z,5.91
2023-03-29T06:39:23.768Z,5.94
2023-03-29T06:40:23.733Z,5.94
2023-03-29T06:41:23.807Z,5.91
2023-03-29T06:42:23.704Z,5.73
2023-03-29T06:43:23.684Z,5.75
2023-03-29T06:44:23.713Z,5.79
2023-03-29T06:45:24.769Z,5.73
2023-03-29T06:46:23.717Z,5.94
2023-03-29T06:47:23.675Z,5.98
2023-03-29T06:48:23.654Z,5.98
2023-03-29T06:49:23.624Z,6.01
2023-03-29T06:50:23.602Z,6.02
2023-03-29T06:51:23.630Z,5.87
2023-03-29T06:52:23.596Z,6.14
2023-03-29T06:53:23.550Z,6.17
2023-03-29T06:54:23.523Z,6.19
2023-03-29T06:55:26.512Z,6.22
2023-03-29T06:56:26.510Z,6.22
2023-03-29T06:57:23.525Z,6.09
2023-03-29T06:58:23.505Z,6.31
2023-03-29T06:59:23.456Z,6.35
2023-03-29T07:00:23.513Z,6.12
2023-03-29T07:01:23.469Z,6.39
2023-03-29T07:02:23.439Z,6.42
2023-03-29T07:03:23.527Z,6.45
2023-03-29T07:04:23.451Z,6.27
2023-03-29T07:05:23.373Z,6.28
2023-03-29T07:06:23.407Z,6.39
2023-03-29T07:07:23.360Z,6.62
2023-03-29T07:08:23.332Z,6.63
2023-03-29T07:09:23.331Z,6.70
2023-03-29T07:10:23.348Z,6.75
2023-03-29T07:11:23.364Z,6.81
2023-03-29T07:12:23.299Z,6.89
2023-03-29T07:13:23.274Z,6.99
2023-03-29T07:14:23.253Z,7.07
2023-03-29T07:15:26.247Z,7.17
2023-03-29T07:16:26.337Z,7.21
2023-03-29T07:17:23.255Z,7.00
2023-03-29T07:18:23.212Z,7.25
2023-03-29T07:19:23.187Z,7.32
2023-03-29T07:20:23.210Z,7.23
2023-03-29T07:21:23.162Z,7.40
2023-03-29T07:22:23.210Z,7.25
2023-03-29T07:23:23.152Z,7.50
2023-03-29T07:24:23.129Z,7.56
2023-03-29T07:25:23.251Z,7.57
2023-03-29T07:26:28.786Z,7.57
2023-03-29T07:27:24.119Z,7.36
2023-03-29T07:28:23.067Z,7.54
2023-03-29T07:29:23.054Z,7.38
2023-03-29T07:30:23.099Z,7.63
2023-03-29T07:31:23.033Z,7.39
2023-03-29T07:32:23.075Z,7.47
2023-03-29T07:33:23.269Z,7.39
2023-03-29T07:34:22.977Z,7.39
2023-03-29T07:35:25.985Z,7.38
2023-03-29T07:36:25.971Z,7.33
2023-03-29T07:37:22.953Z,7.31
2023-03-29T07:38:22.945Z,7.32
2023-03-29T07:39:22.930Z,7.56
2023-03-29T07:40:22.947Z,7.53
2023-03-29T07:41:22.887Z,7.56
2023-03-29T07:42:22.913Z,7.54
2023-03-29T07:43:22.912Z,7.53
2023-03-29T07:44:22.856Z,7.56
2023-03-29T07:45:26.493Z,7.60
2023-03-29T07:46:23.948Z,7.56
2023-03-29T07:47:22.922Z,7.57
2023-03-29T07:48:22.783Z,7.58
2023-03-29T07:49:22.773Z,7.51
2023-03-29T07:50:22.806Z,7.36
2023-03-29T07:51:22.804Z,7.67
2023-03-29T07:52:22.830Z,7.69
2023-03-29T07:53:22.755Z,7.69
2023-03-29T07:54:22.722Z,7.72
2023-03-29T07:55:25.802Z,7.75
2023-03-29T07:56:25.757Z,7.79
2023-03-29T07:57:22.798Z,7.83
2023-03-29T07:58:22.741Z,7.83
2023-03-29T07:59:22.652Z,7.88
2023-03-29T08:00:22.699Z,7.90
2023-03-29T08:01:22.661Z,7.95
2023-03-29T08:02:22.623Z,7.82
2023-03-29T08:03:22.695Z,8.00
2023-03-29T08:04:22.695Z,8.06
2023-03-29T08:05:37.951Z,8.12
2023-03-29T08:06:23.582Z,8.18
2023-03-29T08:07:22.559Z,8.16
2023-03-29T08:08:22.550Z,8.12
2023-03-29T08:09:22.516Z,8.31
2023-03-29T08:10:22.556Z,8.37
2023-03-29T08:11:22.502Z,8.37
2023-03-29T08:12:24.991Z,8.30
2023-03-29T08:13:22.554Z,8.23
2023-03-29T08:14:22.598Z,8.20
2023-03-29T08:15:25.449Z,8.16
2023-03-29T08:16:25.507Z,8.18
2023-03-29T08:17:22.397Z,8.05
2023-03-29T08:18:22.427Z,8.27
2023-03-29T08:19:22.381Z,8.26
2023-03-29T08:20:22.428Z,8.27
2023-03-29T08:21:22.361Z,8.28
2023-03-29T08:22:22.371Z,8.33
2023-03-29T08:23:22.334Z,8.38
2023-03-29T08:24:22.331Z,8.38
2023-03-29T08:25:22.341Z,8.46
2023-03-29T08:26:22.302Z,8.41
2023-03-29T08:27:22.328Z,8.38
2023-03-29T08:28:22.289Z,8.34
2023-03-29T08:29:22.310Z,8.19
2023-03-29T08:30:22.351Z,8.20
2023-03-29T08:31:22.339Z,8.41
2023-03-29T08:32:22.232Z,8.38
2023-03-29T08:33:22.279Z,8.41
2023-03-29T08:34:22.203Z,8.23
2023-03-29T08:35:25.257Z,8.45
2023-03-29T08:36:25.214Z,8.45
2023-03-29T08:37:22.239Z,8.31
2023-03-29T08:38:22.124Z,8.37
2023-03-29T08:39:22.114Z,8.58
2023-03-29T08:40:22.149Z,8.63
2023-03-29T08:41:22.236Z,8.63
2023-03-29T08:42:22.111Z,8.41
2023-03-29T08:43:22.122Z,8.49
2023-03-29T08:44:22.064Z,8.52
2023-03-29T08:45:22.051Z,8.52
2023-03-29T08:46:22.052Z,8.51
2023-03-29T08:47:22.058Z,8.52
2023-03-29T08:48:22.023Z,8.44
2023-03-29T08:49:22.011Z,8.27
2023-03-29T08:50:22.059Z,8.26
2023-03-29T08:51:22.040Z,8.30
2023-03-29T08:52:21.950Z,8.36
2023-03-29T08:53:21.998Z,8.38
2023-03-29T08:54:21.957Z,8.52
2023-03-29T08:55:24.927Z,8.52
2023-03-29T08:56:24.954Z,8.46
2023-03-29T08:57:21.967Z,8.44
2023-03-29T08:58:21.854Z,8.33
2023-03-29T08:59:21.849Z,8.24
2023-03-29T09:00:21.851Z,8.18
2023-03-29T09:01:21.922Z,8.36
2023-03-29T09:02:21.902Z,8.33
2023-03-29T09:03:21.941Z,8.42
2023-03-29T09:04:21.799Z,8.48
2023-03-29T09:05:21.757Z,8.51
2023-03-29T09:06:21.747Z,8.51
2023-03-29T09:07:22.583Z,8.52
2023-03-29T09:08:21.746Z,8.53
2023-03-29T09:09:21.694Z,8.48
2023-03-29T09:10:21.698Z,8.38
2023-03-29T09:11:21.681Z,8.31
2023-03-29T09:12:21.691Z,8.30
2023-03-29T09:13:21.735Z,8.33
2023-03-29T09:14:21.654Z,8.33
2023-03-29T09:15:24.620Z,8.33
2023-03-29T09:16:24.691Z,8.34
2023-03-29T09:17:21.594Z,8.36
2023-03-29T09:18:21.648Z,8.38
2023-03-29T09:19:21.556Z,8.41
2023-03-29T09:20:21.561Z,8.44
2023-03-29T09:21:21.556Z,8.45
2023-03-29T09:22:21.540Z,8.46
2023-03-29T09:23:21.501Z,8.45
2023-03-29T09:24:21.534Z,8.33
2023-03-29T09:25:21.573Z,8.38
2023-03-29T09:26:21.680Z,8.46
2023-03-29T09:27:21.737Z,8.70
2023-03-29T09:28:21.546Z,8.71
2023-03-29T09:29:21.474Z,8.82
2023-03-29T09:30:21.482Z,8.89
2023-03-29T09:31:21.466Z,9.03
2023-03-29T09:32:21.443Z,9.13
2023-03-29T09:33:21.410Z,9.25
2023-03-29T09:34:21.371Z,9.32
2023-03-29T09:35:24.394Z,9.39
2023-03-29T09:36:24.370Z,9.37
2023-03-29T09:37:21.321Z,9.40
2023-03-29T09:38:21.347Z,9.31
2023-03-29T09:39:21.337Z,9.23
2023-03-29T09:40:21.319Z,9.19
2023-03-29T09:41:21.297Z,9.13
2023-03-29T09:42:21.276Z,9.14
2023-03-29T09:43:21.240Z,9.18
2023-03-29T09:44:30.169Z,9.19
2023-03-29T09:45:22.216Z,9.23
2023-03-29T09:46:21.317Z,9.25
2023-03-29T09:47:21.230Z,9.26
2023-03-29T09:48:21.206Z,9.26
2023-03-29T09:49:21.149Z,9.10
2023-03-29T09:50:30.874Z,9.13
2023-03-29T09:51:22.126Z,9.16
2023-03-29T09:52:21.116Z,9.14
2023-03-29T09:53:21.159Z,9.13
2023-03-29T09:54:21.091Z,9.11
2023-03-29T09:55:24.129Z,9.14
2023-03-29T09:56:24.102Z,9.11
2023-03-29T09:57:21.101Z,9.10
2023-03-29T09:58:21.076Z,9.04
2023-03-29T09:59:21.025Z,9.03
2023-03-29T10:00:21.083Z,8.97
2023-03-29T10:01:21.097Z,9.02
2023-03-29T10:02:21.016Z,9.03
2023-03-29T10:03:20.979Z,9.06
2023-03-29T10:04:21.009Z,9.26
2023-03-29T10:05:21.002Z,9.26
2023-03-29T10:06:20.966Z,9.16
2023-03-29T10:07:20.963Z,9.18
2023-03-29T10:08:20.915Z,9.13
2023-03-29T10:09:20.898Z,9.16
2023-03-29T10:10:20.884Z,9.14
2023-03-29T10:11:20.864Z,9.11
2023-03-29T10:12:20.884Z,9.10
2023-03-29T10:13:20.848Z,9.08
2023-03-29T10:14:20.834Z,9.11
2023-03-29T10:15:29.724Z,9.14
2023-03-29T10:16:24.913Z,9.18
2023-03-29T10:17:20.954Z,9.29
2023-03-29T10:18:20.871Z,9.32
2023-03-29T10:19:20.781Z,9.39
2023-03-29T10:20:20.754Z,9.39
2023-03-29T10:21:21.028Z,9.43
2023-03-29T10:22:20.875Z,9.44
2023-03-29T10:23:20.877Z,9.43
2023-03-29T10:24:20.816Z,9.46
2023-03-29T10:25:20.800Z,9.46
2023-03-29T10:26:20.696Z,9.46
2023-03-29T10:27:20.886Z,9.47
2023-03-29T10:28:20.918Z,9.47
2023-03-29T10:29:20.665Z,9.44
2023-03-29T10:30:20.627Z,9.41
2023-03-29T10:31:20.708Z,9.40
2023-03-29T10:32:20.700Z,9.37
2023-03-29T10:33:20.698Z,9.31
2023-03-29T10:34:20.682Z,9.29
2023-03-29T10:35:23.611Z,9.28
2023-03-29T10:36:23.556Z,9.28
2023-03-29T10:37:20.541Z,9.32
2023-03-29T10:38:20.622Z,9.37
2023-03-29T10:39:20.542Z,9.43
2023-03-29T10:40:20.719Z,9.41
2023-03-29T10:41:20.482Z,9.39
2023-03-29T10:42:20.488Z,9.21
2023-03-29T10:43:20.448Z,9.48
2023-03-29T10:44:20.448Z,9.55
2023-03-29T10:45:20.415Z,9.59
2023-03-29T10:46:20.459Z,9.44
2023-03-29T10:47:20.443Z,9.59
2023-03-29T10:48:20.444Z,9.62
2023-03-29T10:49:20.378Z,9.68
2023-03-29T10:50:20.423Z,9.72
2023-03-29T10:51:20.351Z,9.69
2023-03-29T10:52:20.318Z,9.41
2023-03-29T10:53:20.319Z,9.44
2023-03-29T10:54:20.350Z,9.58
2023-03-29T10:55:23.357Z,9.44
2023-03-29T10:56:23.310Z,9.54
2023-03-29T10:57:22.824Z,9.59
2023-03-29T10:58:20.235Z,9.59
2023-03-29T10:59:20.242Z,9.79
2023-03-29T11:00:20.231Z,9.73
2023-03-29T11:01:20.251Z,9.76
2023-03-29T11:02:20.235Z,9.83
2023-03-29T11:03:21.629Z,9.84
2023-03-29T11:04:20.166Z,9.73
2023-03-29T11:05:20.168Z,9.73
2023-03-29T11:06:20.194Z,9.86
2023-03-29T11:07:20.138Z,9.89
2023-03-29T11:08:20.117Z,9.89
2023-03-29T11:09:20.103Z,9.92
2023-03-29T11:10:20.119Z,9.92
2023-03-29T11:11:20.078Z,9.97
2023-03-29T11:12:20.105Z,9.92
2023-03-29T11:13:20.115Z,9.92
2023-03-29T11:14:20.032Z,9.91
2023-03-29T11:15:23.117Z,9.91
2023-03-29T11:16:23.105Z,9.94
2023-03-29T11:17:20.007Z,9.94
2023-03-29T11:18:19.971Z,9.79
2023-03-29T11:19:19.963Z,9.82
2023-03-29T11:20:19.974Z,9.83
2023-03-29T11:21:19.944Z,9.87
2023-03-29T11:22:19.995Z,10.02
2023-03-29T11:23:19.917Z,10.02
2023-03-29T11:24:19.903Z,9.98
2023-03-29T11:25:19.907Z,9.86
2023-03-29T11:26:20.052Z,9.91
2023-03-29T11:27:19.872Z,9.97
2023-03-29T11:28:19.933Z,10.19
2023-03-29T11:29:19.891Z,10.22
2023-03-29T11:30:19.836Z,10.25
2023-03-29T11:31:19.888Z,10.25
2023-03-29T11:32:19.857Z,10.26
2023-03-29T11:33:19.802Z,10.34
2023-03-29T11:34:19.856Z,10.38
2023-03-29T11:35:22.773Z,10.44
2023-03-29T11:36:22.754Z,10.48
2023-03-29T11:37:19.745Z,10.54
2023-03-29T11:38:19.717Z,10.61
2023-03-29T11:39:19.715Z,10.64
2023-03-29T11:40:19.764Z,10.71
2023-03-29T11:41:19.725Z,10.72
2023-03-29T11:42:19.703Z,10.74
2023-03-29T11:43:19.669Z,10.74
2023-03-29T11:44:19.669Z,10.74
2023-03-29T11:45:19.655Z,10.81
2023-03-29T11:46:19.724Z,10.82
2023-03-29T11:47:19.620Z,10.89
2023-03-29T11:48:19.584Z,10.90
2023-03-29T11:49:19.580Z,10.96
2023-03-29T11:50:19.590Z,11.02
2023-03-29T11:51:19.549Z,11.02
2023-03-29T11:52:19.583Z,10.97
2023-03-29T11:53:19.546Z,10.79
2023-03-29T11:54:19.532Z,10.97
2023-03-29T11:55:22.493Z,10.99
2023-03-29T11:56:22.477Z,11.05
2023-03-29T11:57:19.578Z,11.11
2023-03-29T11:58:19.510Z,11.17
2023-03-29T11:59:19.432Z,11.15
2023-03-29T12:00:19.413Z,11.14
2023-03-29T12:01:19.410Z,11.17
2023-03-29T12:02:19.447Z,11.12
2023-03-29T12:03:19.460Z,11.14
2023-03-29T12:04:19.490Z,11.12
2023-03-29T12:05:19.351Z,11.14
2023-03-29T12:06:19.339Z,11.14
2023-03-29T12:07:19.343Z,11.14
2023-03-29T12:08:19.317Z,11.15
2023-03-29T12:09:19.307Z,11.19
2023-03-29T12:10:19.337Z,11.26
2023-03-29T12:11:19.301Z,11.32
2023-03-29T12:12:19.257Z,11.36
2023-03-29T12:13:19.236Z,11.47
2023-03-29T12:14:19.220Z,11.57
2023-03-29T12:15:22.257Z,11.57
2023-03-29T12:16:22.250Z,11.43
2023-03-29T12:17:19.196Z,11.55
2023-03-29T12:18:19.170Z,11.55
2023-03-29T12:19:19.154Z,11.63
2023-03-29T12:20:19.151Z,11.68
2023-03-29T12:21:19.200Z,11.72
2023-03-29T12:22:19.103Z,11.78
2023-03-29T12:23:19.115Z,11.70
2023-03-29T12:24:19.088Z,11.65
2023-03-29T12:25:20.727Z,11.60
2023-03-29T12:26:19.093Z,11.55
2023-03-29T12:27:19.103Z,11.57
2023-03-29T12:28:19.030Z,11.60
2023-03-29T12:29:19.023Z,11.65
2023-03-29T12:30:19.013Z,11.65
2023-03-29T12:31:19.028Z,11.68
2023-03-29T12:32:18.985Z,11.77
2023-03-29T12:33:19.066Z,11.86
2023-03-29T12:34:18.961Z,11.97
2023-03-29T12:35:21.934Z,12.04
2023-03-29T12:36:21.941Z,12.06
2023-03-29T12:37:18.927Z,12.06
2023-03-29T12:38:18.908Z,12.07
2023-03-29T12:39:18.968Z,12.04
2023-03-29T12:40:18.881Z,12.03
2023-03-29T12:41:18.880Z,12.00
2023-03-29T12:42:18.845Z,11.97
2023-03-29T12:43:18.842Z,11.95
2023-03-29T12:44:18.820Z,11.97
2023-03-29T12:45:18.839Z,12.03
2023-03-29T12:46:18.803Z,12.07
2023-03-29T12:47:18.784Z,11.90
2023-03-29T12:48:18.778Z,12.02
2023-03-29T12:49:20.993Z,12.17
2023-03-29T12:50:18.729Z,12.18
2023-03-29T12:51:18.791Z,12.10
2023-03-29T12:52:18.704Z,12.12
2023-03-29T12:53:18.699Z,12.12
2023-03-29T12:54:18.681Z,12.09
2023-03-29T12:55:21.694Z,12.20
2023-03-29T12:56:21.742Z,11.99
2023-03-29T12:57:18.673Z,12.06
2023-03-29T12:58:18.685Z,12.06
2023-03-29T12:59:18.614Z,11.95
2023-03-29T13:00:18.605Z,11.87
2023-03-29T13:01:18.690Z,11.91
2023-03-29T13:02:18.652Z,11.94
2023-03-29T13:03:18.566Z,11.91
2023-03-29T13:04:18.642Z,12.06
2023-03-29T13:05:18.549Z,12.10
2023-03-29T13:06:18.549Z,12.04
2023-03-29T13:07:18.521Z,12.36
2023-03-29T13:08:18.525Z,12.42
2023-03-29T13:09:18.508Z,12.37
2023-03-29T13:10:18.477Z,12.46
2023-03-29T13:11:18.447Z,12.64
2023-03-29T13:12:18.452Z,12.62
2023-03-29T13:13:18.453Z,12.64
2023-03-29T13:14:18.460Z,12.60